sensor_id;sensor_type;location;lat;lon;timestamp;P1;durP1;ratioP1;P2;durP2;ratioP2
46222;SDS011;31943;51.410;7.564;2023-08-17T00:01:44;10.50;;;4.75;;
46222;SDS011;31943;51.410;7.564;2023-08-17T00:04:10;8.50;;;4.55;;
46222;SDS011;31943;51.410;7.564;2023-08-17T00:06:35;8.98;;;5.10;;
46222;SDS011;31943;51.410;7.564;2023-08-17T00:09:01;9.88;;;6.05;;
46222;SDS011;31943;51.410;7.564;2023-08-17T00:11:28;9.30;;;5.05;;
46222;SDS011;31943;51.410;7.564;2023-08-17T00:13:54;11.07;;;5.07;;
46222;SDS011;31943;51.410;7.564;2023-08-17T00:16:19;10.52;;;4.93;;
46222;SDS011;31943;51.410;7.564;2023-08-17T00:18:45;7.90;;;5.18;;
46222;SDS011;31943;51.410;7.564;2023-08-17T00:21:11;7.35;;;5.40;;
46222;SDS011;31943;51.410;7.564;2023-08-17T00:23:36;7.90;;;5.68;;
46222;SDS011;31943;51.410;7.564;2023-08-17T00:26:02;10.90;;;5.28;;
46222;SDS011;31943;51.410;7.564;2023-08-17T00:28:30;7.57;;;5.03;;
46222;SDS011;31943;51.410;7.564;2023-08-17T00:30:57;8.93;;;4.82;;
46222;SDS011;31943;51.410;7.564;2023-08-17T00:33:24;7.78;;;5.40;;
46222;SDS011;31943;51.410;7.564;2023-08-17T00:35:50;7.20;;;4.88;;
46222;SDS011;31943;51.410;7.564;2023-08-17T00:38:15;6.55;;;4.70;;
46222;SDS011;31943;51.410;7.564;2023-08-17T00:40:41;5.85;;;4.88;;
46222;SDS011;31943;51.410;7.564;2023-08-17T00:43:08;9.93;;;4.35;;
46222;SDS011;31943;51.410;7.564;2023-08-17T00:45:35;5.03;;;4.03;;
46222;SDS011;31943;51.410;7.564;2023-08-17T00:48:00;7.85;;;3.95;;
46222;SDS011;31943;51.410;7.564;2023-08-17T00:50:26;5.32;;;4.13;;
46222;SDS011;31943;51.410;7.564;2023-08-17T00:52:53;7.22;;;3.88;;
46222;SDS011;31943;51.410;7.564;2023-08-17T00:55:20;7.93;;;5.47;;
46222;SDS011;31943;51.410;7.564;2023-08-17T00:57:46;6.72;;;4.07;;
46222;SDS011;31943;51.410;7.564;2023-08-17T01:00:13;6.28;;;4.20;;
46222;SDS011;31943;51.410;7.564;2023-08-17T01:02:40;6.85;;;4.82;;
46222;SDS011;31943;51.410;7.564;2023-08-17T01:05:06;5.15;;;4.05;;
46222;SDS011;31943;51.410;7.564;2023-08-17T01:07:32;6.25;;;3.75;;
46222;SDS011;31943;51.410;7.564;2023-08-17T01:09:58;5.22;;;3.70;;
46222;SDS011;31943;51.410;7.564;2023-08-17T01:12:28;4.55;;;3.95;;
46222;SDS011;31943;51.410;7.564;2023-08-17T01:14:56;7.82;;;3.78;;
46222;SDS011;31943;51.410;7.564;2023-08-17T01:17:31;4.57;;;4.10;;
46222;SDS011;31943;51.410;7.564;2023-08-17T01:20:04;4.57;;;3.13;;
46222;SDS011;31943;51.410;7.564;2023-08-17T01:22:33;7.43;;;4.00;;
46222;SDS011;31943;51.410;7.564;2023-08-17T01:25:01;6.28;;;3.80;;
46222;SDS011;31943;51.410;7.564;2023-08-17T01:27:38;6.05;;;3.30;;
46222;SDS011;31943;51.410;7.564;2023-08-17T01:30:06;6.75;;;3.53;;
46222;SDS011;31943;51.410;7.564;2023-08-17T01:32:34;5.95;;;3.75;;
46222;SDS011;31943;51.410;7.564;2023-08-17T01:35:07;5.00;;;3.80;;
46222;SDS011;31943;51.410;7.564;2023-08-17T01:37:39;4.45;;;2.92;;
46222;SDS011;31943;51.410;7.564;2023-08-17T01:40:08;3.90;;;2.58;;
46222;SDS011;31943;51.410;7.564;2023-08-17T01:42:35;6.50;;;3.15;;
46222;SDS011;31943;51.410;7.564;2023-08-17T01:45:02;5.88;;;3.20;;
46222;SDS011;31943;51.410;7.564;2023-08-17T01:47:29;4.88;;;3.40;;
46222;SDS011;31943;51.410;7.564;2023-08-17T01:49:55;5.20;;;3.63;;
46222;SDS011;31943;51.410;7.564;2023-08-17T01:52:21;5.28;;;3.78;;
46222;SDS011;31943;51.410;7.564;2023-08-17T01:54:50;3.78;;;3.17;;
46222;SDS011;31943;51.410;7.564;2023-08-17T01:57:17;4.95;;;3.63;;
46222;SDS011;31943;51.410;7.564;2023-08-17T01:59:42;6.15;;;4.13;;
46222;SDS011;31943;51.410;7.564;2023-08-17T02:02:08;4.85;;;3.65;;
46222;SDS011;31943;51.410;7.564;2023-08-17T02:04:34;7.63;;;3.38;;
46222;SDS011;31943;51.410;7.564;2023-08-17T02:07:00;5.07;;;3.38;;
46222;SDS011;31943;51.410;7.564;2023-08-17T02:09:26;6.05;;;3.50;;
46222;SDS011;31943;51.410;7.564;2023-08-17T02:11:52;5.47;;;3.83;;
46222;SDS011;31943;51.410;7.564;2023-08-17T02:14:19;5.57;;;3.30;;
46222;SDS011;31943;51.410;7.564;2023-08-17T02:16:47;4.32;;;3.92;;
46222;SDS011;31943;51.410;7.564;2023-08-17T02:19:12;5.32;;;3.72;;
46222;SDS011;31943;51.410;7.564;2023-08-17T02:21:38;4.93;;;4.22;;
46222;SDS011;31943;51.410;7.564;2023-08-17T02:24:04;9.93;;;3.05;;
46222;SDS011;31943;51.410;7.564;2023-08-17T02:26:30;3.70;;;3.33;;
46222;SDS011;31943;51.410;7.564;2023-08-17T02:28:56;5.22;;;4.20;;
46222;SDS011;31943;51.410;7.564;2023-08-17T02:31:23;5.60;;;4.00;;
46222;SDS011;31943;51.410;7.564;2023-08-17T02:33:49;7.43;;;4.53;;
46222;SDS011;31943;51.410;7.564;2023-08-17T02:36:15;6.38;;;4.80;;
46222;SDS011;31943;51.410;7.564;2023-08-17T02:38:40;5.38;;;4.50;;
46222;SDS011;31943;51.410;7.564;2023-08-17T02:41:06;6.32;;;5.22;;
46222;SDS011;31943;51.410;7.564;2023-08-17T02:43:31;5.70;;;5.00;;
46222;SDS011;31943;51.410;7.564;2023-08-17T02:45:57;5.47;;;4.97;;
46222;SDS011;31943;51.410;7.564;2023-08-17T02:48:24;6.65;;;5.70;;
46222;SDS011;31943;51.410;7.564;2023-08-17T02:50:50;7.05;;;5.75;;
46222;SDS011;31943;51.410;7.564;2023-08-17T02:53:16;5.97;;;5.40;;
46222;SDS011;31943;51.410;7.564;2023-08-17T02:55:41;7.30;;;6.07;;
46222;SDS011;31943;51.410;7.564;2023-08-17T02:58:07;6.57;;;5.88;;
46222;SDS011;31943;51.410;7.564;2023-08-17T03:00:33;7.03;;;5.32;;
46222;SDS011;31943;51.410;7.564;2023-08-17T03:02:58;7.35;;;6.25;;
46222;SDS011;31943;51.410;7.564;2023-08-17T03:05:26;9.50;;;5.60;;
46222;SDS011;31943;51.410;7.564;2023-08-17T03:07:52;8.02;;;7.18;;
46222;SDS011;31943;51.410;7.564;2023-08-17T03:10:17;7.40;;;6.65;;
46222;SDS011;31943;51.410;7.564;2023-08-17T03:12:43;8.80;;;7.72;;
46222;SDS011;31943;51.410;7.564;2023-08-17T03:15:09;10.13;;;8.55;;
46222;SDS011;31943;51.410;7.564;2023-08-17T03:17:35;10.38;;;8.98;;
46222;SDS011;31943;51.410;7.564;2023-08-17T03:20:01;9.85;;;8.85;;
46222;SDS011;31943;51.410;7.564;2023-08-17T03:22:28;9.77;;;8.88;;
46222;SDS011;31943;51.410;7.564;2023-08-17T03:24:54;11.27;;;8.52;;
46222;SDS011;31943;51.410;7.564;2023-08-17T03:27:20;9.73;;;8.73;;
46222;SDS011;31943;51.410;7.564;2023-08-17T03:29:45;12.68;;;9.90;;
46222;SDS011;31943;51.410;7.564;2023-08-17T03:32:12;8.20;;;7.50;;
46222;SDS011;31943;51.410;7.564;2023-08-17T03:34:38;9.73;;;8.70;;
46222;SDS011;31943;51.410;7.564;2023-08-17T03:37:04;10.23;;;9.00;;
46222;SDS011;31943;51.410;7.564;2023-08-17T03:39:32;8.20;;;7.18;;
46222;SDS011;31943;51.410;7.564;2023-08-17T03:41:57;11.13;;;8.88;;
46222;SDS011;31943;51.410;7.564;2023-08-17T03:44:23;12.77;;;9.20;;
46222;SDS011;31943;51.410;7.564;2023-08-17T03:46:49;7.53;;;6.80;;
46222;SDS011;31943;51.410;7.564;2023-08-17T03:49:15;10.52;;;8.93;;
46222;SDS011;31943;51.410;7.564;2023-08-17T03:51:41;10.18;;;8.90;;
46222;SDS011;31943;51.410;7.564;2023-08-17T03:54:07;10.68;;;9.57;;
46222;SDS011;31943;51.410;7.564;2023-08-17T03:56:34;10.57;;;8.95;;
46222;SDS011;31943;51.410;7.564;2023-08-17T03:59:00;7.93;;;6.03;;
46222;SDS011;31943;51.410;7.564;2023-08-17T04:01:25;10.65;;;9.35;;
46222;SDS011;31943;51.410;7.564;2023-08-17T04:03:51;10.27;;;9.27;;
46222;SDS011;31943;51.410;7.564;2023-08-17T04:06:17;10.77;;;9.73;;
46222;SDS011;31943;51.410;7.564;2023-08-17T04:08:43;9.18;;;8.27;;
46222;SDS011;31943;51.410;7.564;2023-08-17T04:11:08;10.13;;;9.07;;
46222;SDS011;31943;51.410;7.564;2023-08-17T04:13:36;8.77;;;7.22;;
46222;SDS011;31943;51.410;7.564;2023-08-17T04:16:01;13.30;;;9.80;;
46222;SDS011;31943;51.410;7.564;2023-08-17T04:18:27;9.88;;;8.48;;
46222;SDS011;31943;51.410;7.564;2023-08-17T04:20:52;11.60;;;9.13;;
46222;SDS011;31943;51.410;7.564;2023-08-17T04:23:18;10.02;;;9.00;;
46222;SDS011;31943;51.410;7.564;2023-08-17T04:25:43;9.88;;;8.40;;
46222;SDS011;31943;51.410;7.564;2023-08-17T04:28:09;10.20;;;9.23;;
46222;SDS011;31943;51.410;7.564;2023-08-17T04:30:38;10.35;;;8.93;;
46222;SDS011;31943;51.410;7.564;2023-08-17T04:33:04;11.30;;;8.88;;
46222;SDS011;31943;51.410;7.564;2023-08-17T04:35:30;8.95;;;8.10;;
46222;SDS011;31943;51.410;7.564;2023-08-17T04:37:55;9.48;;;8.57;;
46222;SDS011;31943;51.410;7.564;2023-08-17T04:40:21;11.20;;;8.85;;
46222;SDS011;31943;51.410;7.564;2023-08-17T04:42:47;10.35;;;9.05;;
46222;SDS011;31943;51.410;7.564;2023-08-17T04:45:12;8.60;;;7.65;;
46222;SDS011;31943;51.410;7.564;2023-08-17T04:47:39;9.57;;;8.45;;
46222;SDS011;31943;51.410;7.564;2023-08-17T04:50:05;9.63;;;8.57;;
46222;SDS011;31943;51.410;7.564;2023-08-17T04:52:31;10.75;;;9.32;;
46222;SDS011;31943;51.410;7.564;2023-08-17T04:54:57;9.93;;;8.93;;
46222;SDS011;31943;51.410;7.564;2023-08-17T04:57:23;11.45;;;10.25;;
46222;SDS011;31943;51.410;7.564;2023-08-17T04:59:50;8.18;;;6.95;;
46222;SDS011;31943;51.410;7.564;2023-08-17T05:02:16;12.07;;;8.45;;
46222;SDS011;31943;51.410;7.564;2023-08-17T05:04:43;12.63;;;10.60;;
46222;SDS011;31943;51.410;7.564;2023-08-17T05:07:08;11.80;;;10.57;;
46222;SDS011;31943;51.410;7.564;2023-08-17T05:09:34;11.40;;;10.27;;
46222;SDS011;31943;51.410;7.564;2023-08-17T05:11:59;13.38;;;11.02;;
46222;SDS011;31943;51.410;7.564;2023-08-17T05:14:25;12.73;;;8.45;;
46222;SDS011;31943;51.410;7.564;2023-08-17T05:16:52;9.90;;;9.05;;
46222;SDS011;31943;51.410;7.564;2023-08-17T05:19:18;12.93;;;10.80;;
46222;SDS011;31943;51.410;7.564;2023-08-17T05:21:45;9.82;;;8.48;;
46222;SDS011;31943;51.410;7.564;2023-08-17T05:24:11;13.35;;;10.75;;
46222;SDS011;31943;51.410;7.564;2023-08-17T05:26:37;12.05;;;10.77;;
46222;SDS011;31943;51.410;7.564;2023-08-17T05:29:03;16.65;;;11.70;;
46222;SDS011;31943;51.410;7.564;2023-08-17T05:31:28;13.57;;;11.23;;
46222;SDS011;31943;51.410;7.564;2023-08-17T05:33:54;12.95;;;11.65;;
46222;SDS011;31943;51.410;7.564;2023-08-17T05:36:21;12.07;;;10.73;;
46222;SDS011;31943;51.410;7.564;2023-08-17T05:38:48;15.77;;;11.93;;
46222;SDS011;31943;51.410;7.564;2023-08-17T05:41:14;9.25;;;8.38;;
46222;SDS011;31943;51.410;7.564;2023-08-17T05:43:41;12.35;;;11.02;;
46222;SDS011;31943;51.410;7.564;2023-08-17T05:46:06;13.98;;;12.13;;
46222;SDS011;31943;51.410;7.564;2023-08-17T05:48:33;12.10;;;10.85;;
46222;SDS011;31943;51.410;7.564;2023-08-17T05:50:59;16.20;;;11.13;;
46222;SDS011;31943;51.410;7.564;2023-08-17T05:53:25;12.13;;;10.32;;
46222;SDS011;31943;51.410;7.564;2023-08-17T05:55:52;12.23;;;9.40;;
46222;SDS011;31943;51.410;7.564;2023-08-17T05:58:18;12.98;;;11.35;;
46222;SDS011;31943;51.410;7.564;2023-08-17T06:00:44;13.90;;;11.73;;
46222;SDS011;31943;51.410;7.564;2023-08-17T06:03:12;12.38;;;10.85;;
46222;SDS011;31943;51.410;7.564;2023-08-17T06:05:38;14.57;;;12.95;;
46222;SDS011;31943;51.410;7.564;2023-08-17T06:08:04;14.23;;;12.80;;
46222;SDS011;31943;51.410;7.564;2023-08-17T06:10:30;14.20;;;12.55;;
46222;SDS011;31943;51.410;7.564;2023-08-17T06:12:58;16.90;;;14.90;;
46222;SDS011;31943;51.410;7.564;2023-08-17T06:15:24;15.25;;;13.60;;
46222;SDS011;31943;51.410;7.564;2023-08-17T06:17:50;15.98;;;14.30;;
46222;SDS011;31943;51.410;7.564;2023-08-17T06:20:16;16.55;;;14.32;;
46222;SDS011;31943;51.410;7.564;2023-08-17T06:22:41;17.02;;;13.70;;
46222;SDS011;31943;51.410;7.564;2023-08-17T06:25:07;15.23;;;13.77;;
46222;SDS011;31943;51.410;7.564;2023-08-17T06:27:34;15.95;;;14.52;;
46222;SDS011;31943;51.410;7.564;2023-08-17T06:30:01;15.40;;;13.63;;
46222;SDS011;31943;51.410;7.564;2023-08-17T06:32:27;14.68;;;13.38;;
46222;SDS011;31943;51.410;7.564;2023-08-17T06:34:52;12.65;;;11.45;;
46222;SDS011;31943;51.410;7.564;2023-08-17T06:37:18;14.00;;;12.32;;
46222;SDS011;31943;51.410;7.564;2023-08-17T06:39:44;13.93;;;12.65;;
46222;SDS011;31943;51.410;7.564;2023-08-17T06:42:09;12.18;;;11.00;;
46222;SDS011;31943;51.410;7.564;2023-08-17T06:44:35;13.77;;;12.38;;
46222;SDS011;31943;51.410;7.564;2023-08-17T06:47:02;14.68;;;13.35;;
46222;SDS011;31943;51.410;7.564;2023-08-17T06:49:28;12.00;;;10.98;;
46222;SDS011;31943;51.410;7.564;2023-08-17T06:51:55;10.25;;;9.23;;
46222;SDS011;31943;51.410;7.564;2023-08-17T06:54:20;15.15;;;11.93;;
46222;SDS011;31943;51.410;7.564;2023-08-17T06:56:46;14.50;;;12.32;;
46222;SDS011;31943;51.410;7.564;2023-08-17T06:59:12;10.52;;;9.52;;
46222;SDS011;31943;51.410;7.564;2023-08-17T07:01:37;15.77;;;14.10;;
46222;SDS011;31943;51.410;7.564;2023-08-17T07:04:06;16.40;;;13.93;;
46222;SDS011;31943;51.410;7.564;2023-08-17T07:06:31;15.95;;;14.35;;
46222;SDS011;31943;51.410;7.564;2023-08-17T07:08:57;17.60;;;15.90;;
46222;SDS011;31943;51.410;7.564;2023-08-17T07:11:23;17.48;;;15.65;;
46222;SDS011;31943;51.410;7.564;2023-08-17T07:13:48;18.67;;;16.98;;
46222;SDS011;31943;51.410;7.564;2023-08-17T07:16:15;19.15;;;17.35;;
46222;SDS011;31943;51.410;7.564;2023-08-17T07:18:41;19.98;;;18.00;;
46222;SDS011;31943;51.410;7.564;2023-08-17T07:21:09;20.65;;;18.70;;
46222;SDS011;31943;51.410;7.564;2023-08-17T07:23:34;19.33;;;17.58;;
46222;SDS011;31943;51.410;7.564;2023-08-17T07:26:00;18.13;;;16.23;;
46222;SDS011;31943;51.410;7.564;2023-08-17T07:28:26;16.80;;;15.20;;
46222;SDS011;31943;51.410;7.564;2023-08-17T07:30:51;16.50;;;14.25;;
46222;SDS011;31943;51.410;7.564;2023-08-17T07:33:17;14.90;;;13.52;;
46222;SDS011;31943;51.410;7.564;2023-08-17T07:35:43;16.05;;;13.32;;
46222;SDS011;31943;51.410;7.564;2023-08-17T07:38:10;14.20;;;12.80;;
46222;SDS011;31943;51.410;7.564;2023-08-17T07:40:36;14.05;;;12.65;;
46222;SDS011;31943;51.410;7.564;2023-08-17T07:43:02;13.90;;;11.98;;
46222;SDS011;31943;51.410;7.564;2023-08-17T07:45:28;16.73;;;14.05;;
46222;SDS011;31943;51.410;7.564;2023-08-17T07:47:53;13.73;;;12.50;;
46222;SDS011;31943;51.410;7.564;2023-08-17T07:50:19;17.98;;;13.98;;
46222;SDS011;31943;51.410;7.564;2023-08-17T07:52:45;14.95;;;13.45;;
46222;SDS011;31943;51.410;7.564;2023-08-17T07:55:12;15.35;;;13.80;;
46222;SDS011;31943;51.410;7.564;2023-08-17T07:57:38;14.02;;;12.73;;
46222;SDS011;31943;51.410;7.564;2023-08-17T08:00:05;17.92;;;13.43;;
46222;SDS011;31943;51.410;7.564;2023-08-17T08:02:31;15.63;;;11.35;;
46222;SDS011;31943;51.410;7.564;2023-08-17T08:04:57;13.73;;;12.20;;
46222;SDS011;31943;51.410;7.564;2023-08-17T08:07:22;13.60;;;12.27;;
46222;SDS011;31943;51.410;7.564;2023-08-17T08:09:48;15.75;;;12.88;;
46222;SDS011;31943;51.410;7.564;2023-08-17T08:12:15;13.73;;;12.20;;
46222;SDS011;31943;51.410;7.564;2023-08-17T08:14:42;12.88;;;11.40;;
46222;SDS011;31943;51.410;7.564;2023-08-17T08:17:07;11.23;;;9.75;;
46222;SDS011;31943;51.410;7.564;2023-08-17T08:19:33;12.48;;;9.60;;
46222;SDS011;31943;51.410;7.564;2023-08-17T08:22:00;10.57;;;9.00;;
46222;SDS011;31943;51.410;7.564;2023-08-17T08:24:25;13.32;;;11.60;;
46222;SDS011;31943;51.410;7.564;2023-08-17T08:26:51;13.90;;;12.52;;
46222;SDS011;31943;51.410;7.564;2023-08-17T08:29:18;14.77;;;12.73;;
46222;SDS011;31943;51.410;7.564;2023-08-17T08:31:44;11.88;;;10.52;;
46222;SDS011;31943;51.410;7.564;2023-08-17T08:34:10;14.02;;;12.02;;
46222;SDS011;31943;51.410;7.564;2023-08-17T08:36:35;16.60;;;14.18;;
46222;SDS011;31943;51.410;7.564;2023-08-17T08:39:01;16.35;;;12.98;;
46222;SDS011;31943;51.410;7.564;2023-08-17T08:41:26;15.38;;;12.27;;
46222;SDS011;31943;51.410;7.564;2023-08-17T08:43:54;10.82;;;9.38;;
46222;SDS011;31943;51.410;7.564;2023-08-17T08:46:21;13.27;;;11.90;;
46222;SDS011;31943;51.410;7.564;2023-08-17T08:51:19;13.68;;;12.05;;
46222;SDS011;31943;51.410;7.564;2023-08-17T08:53:50;12.73;;;11.18;;
46222;SDS011;31943;51.410;7.564;2023-08-17T08:56:26;15.80;;;13.20;;
46222;SDS011;31943;51.410;7.564;2023-08-17T08:58:56;14.80;;;13.13;;
46222;SDS011;31943;51.410;7.564;2023-08-17T09:01:27;14.63;;;13.07;;
46222;SDS011;31943;51.410;7.564;2023-08-17T09:03:55;18.35;;;14.18;;
46222;SDS011;31943;51.410;7.564;2023-08-17T09:06:21;17.20;;;14.20;;
46222;SDS011;31943;51.410;7.564;2023-08-17T09:08:50;15.07;;;13.43;;
46222;SDS011;31943;51.410;7.564;2023-08-17T09:11:17;18.27;;;14.50;;
46222;SDS011;31943;51.410;7.564;2023-08-17T09:13:42;15.55;;;13.18;;
46222;SDS011;31943;51.410;7.564;2023-08-17T09:16:11;14.82;;;13.27;;
46222;SDS011;31943;51.410;7.564;2023-08-17T09:18:38;14.98;;;12.82;;
46222;SDS011;31943;51.410;7.564;2023-08-17T09:21:05;15.18;;;13.55;;
46222;SDS011;31943;51.410;7.564;2023-08-17T09:23:31;14.90;;;13.40;;
46222;SDS011;31943;51.410;7.564;2023-08-17T09:25:57;15.25;;;13.30;;
46222;SDS011;31943;51.410;7.564;2023-08-17T09:28:23;14.18;;;11.93;;
46222;SDS011;31943;51.410;7.564;2023-08-17T09:30:50;13.68;;;12.38;;
46222;SDS011;31943;51.410;7.564;2023-08-17T09:33:17;15.75;;;12.50;;
46222;SDS011;31943;51.410;7.564;2023-08-17T09:35:44;14.82;;;12.65;;
46222;SDS011;31943;51.410;7.564;2023-08-17T09:38:09;12.18;;;10.43;;
46222;SDS011;31943;51.410;7.564;2023-08-17T09:40:35;13.50;;;12.10;;
46222;SDS011;31943;51.410;7.564;2023-08-17T09:43:01;14.48;;;12.45;;
46222;SDS011;31943;51.410;7.564;2023-08-17T09:45:27;12.23;;;11.02;;
46222;SDS011;31943;51.410;7.564;2023-08-17T09:47:53;12.98;;;11.68;;
46222;SDS011;31943;51.410;7.564;2023-08-17T09:50:21;12.13;;;10.00;;
46222;SDS011;31943;51.410;7.564;2023-08-17T09:52:49;12.77;;;11.43;;
46222;SDS011;31943;51.410;7.564;2023-08-17T09:55:18;12.32;;;11.02;;
46222;SDS011;31943;51.410;7.564;2023-08-17T09:57:45;12.02;;;10.80;;
46222;SDS011;31943;51.410;7.564;2023-08-17T10:00:14;10.38;;;8.55;;
46222;SDS011;31943;51.410;7.564;2023-08-17T10:02:40;12.88;;;11.05;;
46222;SDS011;31943;51.410;7.564;2023-08-17T10:05:06;12.48;;;9.93;;
46222;SDS011;31943;51.410;7.564;2023-08-17T10:07:35;10.90;;;9.75;;
46222;SDS011;31943;51.410;7.564;2023-08-17T10:10:06;13.00;;;9.90;;
46222;SDS011;31943;51.410;7.564;2023-08-17T10:12:33;10.55;;;8.75;;
46222;SDS011;31943;51.410;7.564;2023-08-17T10:15:02;9.05;;;8.25;;
46222;SDS011;31943;51.410;7.564;2023-08-17T10:17:35;11.82;;;8.88;;
46222;SDS011;31943;51.410;7.564;2023-08-17T10:20:08;9.38;;;7.45;;
46222;SDS011;31943;51.410;7.564;2023-08-17T10:22:36;9.70;;;8.75;;
46222;SDS011;31943;51.410;7.564;2023-08-17T10:25:09;10.20;;;7.93;;
46222;SDS011;31943;51.410;7.564;2023-08-17T10:27:36;8.73;;;7.28;;
46222;SDS011;31943;51.410;7.564;2023-08-17T10:30:02;10.50;;;9.40;;
46222;SDS011;31943;51.410;7.564;2023-08-17T10:32:30;9.90;;;7.68;;
46222;SDS011;31943;51.410;7.564;2023-08-17T10:34:56;8.23;;;7.07;;
46222;SDS011;31943;51.410;7.564;2023-08-17T10:37:25;9.55;;;7.95;;
46222;SDS011;31943;51.410;7.564;2023-08-17T10:39:51;8.80;;;7.93;;
46222;SDS011;31943;51.410;7.564;2023-08-17T10:42:31;10.18;;;8.60;;
46222;SDS011;31943;51.410;7.564;2023-08-17T10:44:57;7.88;;;6.85;;
46222;SDS011;31943;51.410;7.564;2023-08-17T10:47:25;9.15;;;7.53;;
46222;SDS011;31943;51.410;7.564;2023-08-17T10:49:55;8.13;;;7.22;;
46222;SDS011;31943;51.410;7.564;2023-08-17T10:52:28;8.63;;;6.15;;
46222;SDS011;31943;51.410;7.564;2023-08-17T10:54:55;11.13;;;6.63;;
46222;SDS011;31943;51.410;7.564;2023-08-17T10:57:27;8.75;;;6.50;;
46222;SDS011;31943;51.410;7.564;2023-08-17T11:02:57;6.38;;;5.47;;
46222;SDS011;31943;51.410;7.564;2023-08-17T11:05:34;6.85;;;5.95;;
46222;SDS011;31943;51.410;7.564;2023-08-17T11:08:00;9.77;;;7.30;;
46222;SDS011;31943;51.410;7.564;2023-08-17T11:10:26;8.82;;;6.07;;
46222;SDS011;31943;51.410;7.564;2023-08-17T11:12:53;7.20;;;6.15;;
46222;SDS011;31943;51.410;7.564;2023-08-17T11:15:19;7.07;;;6.38;;
46222;SDS011;31943;51.410;7.564;2023-08-17T11:17:47;7.78;;;5.97;;
46222;SDS011;31943;51.410;7.564;2023-08-17T11:20:13;7.88;;;5.85;;
46222;SDS011;31943;51.410;7.564;2023-08-17T11:22:39;5.28;;;4.78;;
46222;SDS011;31943;51.410;7.564;2023-08-17T11:25:06;6.20;;;5.32;;
46222;SDS011;31943;51.410;7.564;2023-08-17T11:27:32;7.28;;;5.50;;
46222;SDS011;31943;51.410;7.564;2023-08-17T11:29:58;6.40;;;5.28;;
46222;SDS011;31943;51.410;7.564;2023-08-17T11:32:24;5.65;;;5.15;;
46222;SDS011;31943;51.410;7.564;2023-08-17T11:34:52;6.03;;;5.10;;
46222;SDS011;31943;51.410;7.564;2023-08-17T11:37:17;5.93;;;4.90;;
46222;SDS011;31943;51.410;7.564;2023-08-17T11:39:43;6.55;;;5.95;;
46222;SDS011;31943;51.410;7.564;2023-08-17T11:42:10;7.18;;;6.50;;
46222;SDS011;31943;51.410;7.564;2023-08-17T11:44:37;7.43;;;5.82;;
46222;SDS011;31943;51.410;7.564;2023-08-17T11:47:03;6.85;;;6.15;;
46222;SDS011;31943;51.410;7.564;2023-08-17T11:49:30;8.43;;;6.40;;
46222;SDS011;31943;51.410;7.564;2023-08-17T11:51:57;6.60;;;5.90;;
46222;SDS011;31943;51.410;7.564;2023-08-17T11:54:24;7.40;;;5.70;;
46222;SDS011;31943;51.410;7.564;2023-08-17T11:56:51;7.07;;;6.38;;
46222;SDS011;31943;51.410;7.564;2023-08-17T11:59:17;7.68;;;6.82;;
46222;SDS011;31943;51.410;7.564;2023-08-17T12:01:44;8.70;;;5.85;;
46222;SDS011;31943;51.410;7.564;2023-08-17T12:04:10;8.73;;;6.60;;
46222;SDS011;31943;51.410;7.564;2023-08-17T12:06:36;8.02;;;6.50;;
46222;SDS011;31943;51.410;7.564;2023-08-17T12:09:10;10.20;;;7.07;;
46222;SDS011;31943;51.410;7.564;2023-08-17T12:11:36;8.00;;;7.03;;
46222;SDS011;31943;51.410;7.564;2023-08-17T12:14:08;8.60;;;6.60;;
46222;SDS011;31943;51.410;7.564;2023-08-17T12:16:34;9.68;;;7.15;;
46222;SDS011;31943;51.410;7.564;2023-08-17T12:19:00;9.15;;;7.25;;
46222;SDS011;31943;51.410;7.564;2023-08-17T12:21:26;8.65;;;7.75;;
46222;SDS011;31943;51.410;7.564;2023-08-17T12:23:52;8.00;;;7.22;;
46222;SDS011;31943;51.410;7.564;2023-08-17T12:26:20;8.45;;;7.65;;
46222;SDS011;31943;51.410;7.564;2023-08-17T12:28:48;9.05;;;8.02;;
46222;SDS011;31943;51.410;7.564;2023-08-17T12:31:20;8.80;;;8.10;;
46222;SDS011;31943;51.410;7.564;2023-08-17T12:33:46;9.60;;;8.02;;
46222;SDS011;31943;51.410;7.564;2023-08-17T12:36:11;8.50;;;7.70;;
46222;SDS011;31943;51.410;7.564;2023-08-17T12:38:38;8.43;;;7.47;;
46222;SDS011;31943;51.410;7.564;2023-08-17T12:41:03;8.63;;;7.72;;
46222;SDS011;31943;51.410;7.564;2023-08-17T12:43:31;7.78;;;7.05;;
46222;SDS011;31943;51.410;7.564;2023-08-17T12:45:57;9.00;;;7.68;;
46222;SDS011;31943;51.410;7.564;2023-08-17T12:48:23;8.60;;;7.78;;
46222;SDS011;31943;51.410;7.564;2023-08-17T12:50:50;8.32;;;7.50;;
46222;SDS011;31943;51.410;7.564;2023-08-17T12:53:16;8.05;;;7.25;;
46222;SDS011;31943;51.410;7.564;2023-08-17T12:55:43;8.52;;;7.65;;
46222;SDS011;31943;51.410;7.564;2023-08-17T12:58:10;9.10;;;8.20;;
46222;SDS011;31943;51.410;7.564;2023-08-17T13:00:39;7.90;;;7.15;;
46222;SDS011;31943;51.410;7.564;2023-08-17T13:03:05;7.60;;;6.80;;
46222;SDS011;31943;51.410;7.564;2023-08-17T13:05:32;8.35;;;6.90;;
46222;SDS011;31943;51.410;7.564;2023-08-17T13:08:00;8.68;;;7.78;;
46222;SDS011;31943;51.410;7.564;2023-08-17T13:10:26;10.63;;;7.70;;
46222;SDS011;31943;51.410;7.564;2023-08-17T13:12:52;7.65;;;6.30;;
46222;SDS011;31943;51.410;7.564;2023-08-17T13:15:18;8.02;;;7.20;;
46222;SDS011;31943;51.410;7.564;2023-08-17T13:17:45;7.60;;;6.90;;
46222;SDS011;31943;51.410;7.564;2023-08-17T13:20:12;8.95;;;7.43;;
46222;SDS011;31943;51.410;7.564;2023-08-17T13:22:38;7.25;;;6.55;;
46222;SDS011;31943;51.410;7.564;2023-08-17T13:25:06;7.50;;;6.78;;
46222;SDS011;31943;51.410;7.564;2023-08-17T13:27:32;8.48;;;7.57;;
46222;SDS011;31943;51.410;7.564;2023-08-17T13:29:58;8.05;;;7.25;;
46222;SDS011;31943;51.410;7.564;2023-08-17T13:32:25;8.05;;;7.20;;
46222;SDS011;31943;51.410;7.564;2023-08-17T13:34:53;9.25;;;7.70;;
46222;SDS011;31943;51.410;7.564;2023-08-17T13:37:21;8.68;;;7.75;;
46222;SDS011;31943;51.410;7.564;2023-08-17T13:39:47;9.15;;;7.97;;
46222;SDS011;31943;51.410;7.564;2023-08-17T13:42:12;8.57;;;6.63;;
46222;SDS011;31943;51.410;7.564;2023-08-17T13:44:38;7.22;;;6.53;;
46222;SDS011;31943;51.410;7.564;2023-08-17T13:47:05;9.23;;;8.30;;
46222;SDS011;31943;51.410;7.564;2023-08-17T13:49:30;8.27;;;7.47;;
46222;SDS011;31943;51.410;7.564;2023-08-17T13:51:58;8.43;;;7.63;;
46222;SDS011;31943;51.410;7.564;2023-08-17T13:54:23;7.30;;;6.60;;
46222;SDS011;31943;51.410;7.564;2023-08-17T13:56:49;9.00;;;7.80;;
46222;SDS011;31943;51.410;7.564;2023-08-17T13:59:15;9.65;;;8.13;;
46222;SDS011;31943;51.410;7.564;2023-08-17T14:01:41;8.63;;;7.60;;
46222;SDS011;31943;51.410;7.564;2023-08-17T14:04:07;8.80;;;7.47;;
46222;SDS011;31943;51.410;7.564;2023-08-17T14:06:33;8.13;;;7.32;;
46222;SDS011;31943;51.410;7.564;2023-08-17T14:09:03;8.50;;;7.70;;
46222;SDS011;31943;51.410;7.564;2023-08-17T14:11:28;8.18;;;7.28;;
46222;SDS011;31943;51.410;7.564;2023-08-17T14:13:54;9.82;;;7.10;;
46222;SDS011;31943;51.410;7.564;2023-08-17T14:16:20;8.05;;;7.25;;
46222;SDS011;31943;51.410;7.564;2023-08-17T14:18:45;9.07;;;8.18;;
46222;SDS011;31943;51.410;7.564;2023-08-17T14:21:12;8.68;;;7.35;;
46222;SDS011;31943;51.410;7.564;2023-08-17T14:23:38;9.13;;;8.23;;
46222;SDS011;31943;51.410;7.564;2023-08-17T14:26:07;8.57;;;7.65;;
46222;SDS011;31943;51.410;7.564;2023-08-17T14:28:33;8.65;;;7.85;;
46222;SDS011;31943;51.410;7.564;2023-08-17T14:30:59;8.27;;;7.57;;
46222;SDS011;31943;51.410;7.564;2023-08-17T14:33:25;8.52;;;7.72;;
46222;SDS011;31943;51.410;7.564;2023-08-17T14:35:50;8.70;;;7.90;;
46222;SDS011;31943;51.410;7.564;2023-08-17T14:38:17;8.35;;;7.55;;
46222;SDS011;31943;51.410;7.564;2023-08-17T14:40:43;9.45;;;8.45;;